sensor_id;sensor_type;location;lat;lon;timestamp;P1;durP1;ratioP1;P2;durP2;ratioP2
19727;SDS011;10015;52.530;13.390;2023-03-01T00:02:01;28.47;;;11.97;;
19727;SDS011;10015;52.530;13.390;2023-03-01T00:04:27;24.20;;;11.70;;
19727;SDS011;10015;52.530;13.390;2023-03-01T00:06:53;28.27;;;11.50;;
19727;SDS011;10015;52.530;13.390;2023-03-01T00:09:19;26.03;;;11.87;;
19727;SDS011;10015;52.530;13.390;2023-03-01T00:11:45;26.10;;;11.60;;
19727;SDS011;10015;52.530;13.390;2023-03-01T00:14:12;30.13;;;12.80;;
19727;SDS011;10015;52.530;13.390;2023-03-01T00:16:39;26.33;;;12.37;;
19727;SDS011;10015;52.530;13.390;2023-03-01T00:19:11;27.00;;;11.50;;
19727;SDS011;10015;52.530;13.390;2023-03-01T00:21:41;28.60;;;12.00;;
19727;SDS011;10015;52.530;13.390;2023-03-01T00:24:07;29.70;;;11.97;;
19727;SDS011;10015;52.530;13.390;2023-03-01T00:26:34;26.20;;;12.17;;
19727;SDS011;10015;52.530;13.390;2023-03-01T00:29:00;26.57;;;10.73;;
19727;SDS011;10015;52.530;13.390;2023-03-01T00:31:27;27.87;;;12.47;;
19727;SDS011;10015;52.530;13.390;2023-03-01T00:33:56;25.87;;;11.53;;
19727;SDS011;10015;52.530;13.390;2023-03-01T00:36:29;23.00;;;10.87;;
19727;SDS011;10015;52.530;13.390;2023-03-01T00:38:57;26.33;;;11.90;;
19727;SDS011;10015;52.530;13.390;2023-03-01T00:41:23;27.47;;;11.33;;
19727;SDS011;10015;52.530;13.390;2023-03-01T00:43:51;27.50;;;12.70;;
19727;SDS011;10015;52.530;13.390;2023-03-01T00:46:19;29.23;;;12.67;;
19727;SDS011;10015;52.530;13.390;2023-03-01T00:48:48;24.90;;;11.67;;
19727;SDS011;10015;52.530;13.390;2023-03-01T00:51:15;30.03;;;12.53;;
19727;SDS011;10015;52.530;13.390;2023-03-01T00:53:43;30.67;;;12.70;;
19727;SDS011;10015;52.530;13.390;2023-03-01T00:56:11;28.53;;;12.77;;
19727;SDS011;10015;52.530;13.390;2023-03-01T00:58:38;26.77;;;12.20;;
19727;SDS011;10015;52.530;13.390;2023-03-01T01:01:11;30.00;;;13.10;;
19727;SDS011;10015;52.530;13.390;2023-03-01T01:03:49;27.70;;;12.10;;
19727;SDS011;10015;52.530;13.390;2023-03-01T01:06:27;31.47;;;13.10;;
19727;SDS011;10015;52.530;13.390;2023-03-01T01:08:55;31.20;;;13.43;;
19727;SDS011;10015;52.530;13.390;2023-03-01T01:11:23;30.33;;;14.00;;
19727;SDS011;10015;52.530;13.390;2023-03-01T01:13:50;28.00;;;12.97;;
19727;SDS011;10015;52.530;13.390;2023-03-01T01:16:17;30.93;;;14.23;;
19727;SDS011;10015;52.530;13.390;2023-03-01T01:18:44;30.93;;;12.60;;
19727;SDS011;10015;52.530;13.390;2023-03-01T01:21:12;30.30;;;13.17;;
19727;SDS011;10015;52.530;13.390;2023-03-01T01:23:39;31.23;;;12.90;;
19727;SDS011;10015;52.530;13.390;2023-03-01T01:26:08;30.07;;;13.13;;
19727;SDS011;10015;52.530;13.390;2023-03-01T01:28:36;30.03;;;13.67;;
19727;SDS011;10015;52.530;13.390;2023-03-01T01:31:03;30.60;;;12.70;;
19727;SDS011;10015;52.530;13.390;2023-03-01T01:33:29;30.63;;;13.20;;
19727;SDS011;10015;52.530;13.390;2023-03-01T01:35:56;31.40;;;12.93;;
19727;SDS011;10015;52.530;13.390;2023-03-01T01:38:22;30.90;;;13.73;;
19727;SDS011;10015;52.530;13.390;2023-03-01T01:40:49;33.70;;;13.27;;
19727;SDS011;10015;52.530;13.390;2023-03-01T01:43:20;26.83;;;12.70;;
19727;SDS011;10015;52.530;13.390;2023-03-01T01:45:46;27.30;;;12.27;;
19727;SDS011;10015;52.530;13.390;2023-03-01T01:48:14;25.80;;;12.40;;
19727;SDS011;10015;52.530;13.390;2023-03-01T01:50:45;31.83;;;12.90;;
19727;SDS011;10015;52.530;13.390;2023-03-01T01:53:17;29.20;;;13.10;;
19727;SDS011;10015;52.530;13.390;2023-03-01T01:55:46;29.63;;;13.43;;
19727;SDS011;10015;52.530;13.390;2023-03-01T01:58:17;29.47;;;12.70;;
19727;SDS011;10015;52.530;13.390;2023-03-01T02:00:46;26.60;;;13.10;;
19727;SDS011;10015;52.530;13.390;2023-03-01T02:03:14;31.37;;;13.50;;
19727;SDS011;10015;52.530;13.390;2023-03-01T02:06:04;28.47;;;13.40;;
19727;SDS011;10015;52.530;13.390;2023-03-01T02:08:37;30.57;;;13.70;;
19727;SDS011;10015;52.530;13.390;2023-03-01T02:11:06;29.13;;;13.57;;
19727;SDS011;10015;52.530;13.390;2023-03-01T02:13:34;29.37;;;13.83;;
19727;SDS011;10015;52.530;13.390;2023-03-01T02:16:18;26.57;;;12.53;;
19727;SDS011;10015;52.530;13.390;2023-03-01T02:18:45;28.33;;;11.97;;
19727;SDS011;10015;52.530;13.390;2023-03-01T02:21:25;28.80;;;13.53;;
19727;SDS011;10015;52.530;13.390;2023-03-01T02:24:03;27.30;;;13.77;;
19727;SDS011;10015;52.530;13.390;2023-03-01T02:26:42;25.20;;;12.43;;
19727;SDS011;10015;52.530;13.390;2023-03-01T02:29:16;27.97;;;13.07;;
19727;SDS011;10015;52.530;13.390;2023-03-01T02:31:42;25.43;;;12.73;;
19727;SDS011;10015;52.530;13.390;2023-03-01T02:34:17;26.73;;;12.10;;
19727;SDS011;10015;52.530;13.390;2023-03-01T02:36:51;26.57;;;12.47;;
19727;SDS011;10015;52.530;13.390;2023-03-01T02:39:22;27.80;;;11.90;;
19727;SDS011;10015;52.530;13.390;2023-03-01T02:41:52;24.33;;;12.60;;
19727;SDS011;10015;52.530;13.390;2023-03-01T02:44:21;26.00;;;12.63;;
19727;SDS011;10015;52.530;13.390;2023-03-01T02:46:50;27.53;;;12.30;;
19727;SDS011;10015;52.530;13.390;2023-03-01T02:49:25;29.33;;;12.93;;
19727;SDS011;10015;52.530;13.390;2023-03-01T02:54:28;25.70;;;12.70;;
19727;SDS011;10015;52.530;13.390;2023-03-01T02:57:02;26.30;;;11.97;;
19727;SDS011;10015;52.530;13.390;2023-03-01T02:59:31;29.03;;;13.63;;
19727;SDS011;10015;52.530;13.390;2023-03-01T03:02:06;25.07;;;12.73;;
19727;SDS011;10015;52.530;13.390;2023-03-01T03:04:32;25.27;;;12.30;;
19727;SDS011;10015;52.530;13.390;2023-03-01T03:06:59;25.07;;;12.43;;
19727;SDS011;10015;52.530;13.390;2023-03-01T03:09:25;25.57;;;12.20;;
19727;SDS011;10015;52.530;13.390;2023-03-01T03:11:51;23.23;;;11.23;;
19727;SDS011;10015;52.530;13.390;2023-03-01T03:14:17;23.53;;;12.43;;
19727;SDS011;10015;52.530;13.390;2023-03-01T03:16:46;27.03;;;11.70;;
19727;SDS011;10015;52.530;13.390;2023-03-01T03:19:14;23.47;;;11.10;;
19727;SDS011;10015;52.530;13.390;2023-03-01T03:21:41;27.37;;;13.20;;
19727;SDS011;10015;52.530;13.390;2023-03-01T03:24:08;23.73;;;11.23;;
19727;SDS011;10015;52.530;13.390;2023-03-01T03:26:34;22.43;;;12.27;;
19727;SDS011;10015;52.530;13.390;2023-03-01T03:29:00;30.57;;;11.83;;
19727;SDS011;10015;52.530;13.390;2023-03-01T03:31:26;27.43;;;12.87;;
19727;SDS011;10015;52.530;13.390;2023-03-01T03:33:52;23.50;;;12.13;;
19727;SDS011;10015;52.530;13.390;2023-03-01T03:36:19;26.43;;;11.97;;
19727;SDS011;10015;52.530;13.390;2023-03-01T03:38:48;27.40;;;12.30;;
19727;SDS011;10015;52.530;13.390;2023-03-01T03:41:14;24.67;;;12.07;;
19727;SDS011;10015;52.530;13.390;2023-03-01T03:43:41;22.77;;;12.43;;
19727;SDS011;10015;52.530;13.390;2023-03-01T03:46:09;23.67;;;12.03;;
19727;SDS011;10015;52.530;13.390;2023-03-01T03:48:37;21.77;;;10.90;;
19727;SDS011;10015;52.530;13.390;2023-03-01T03:51:05;22.37;;;10.77;;
19727;SDS011;10015;52.530;13.390;2023-03-01T03:53:32;25.17;;;11.73;;
19727;SDS011;10015;52.530;13.390;2023-03-01T03:56:01;23.37;;;11.97;;
19727;SDS011;10015;52.530;13.390;2023-03-01T03:58:27;24.07;;;11.53;;
19727;SDS011;10015;52.530;13.390;2023-03-01T04:00:54;24.67;;;11.77;;
19727;SDS011;10015;52.530;13.390;2023-03-01T04:03:22;25.80;;;12.43;;
19727;SDS011;10015;52.530;13.390;2023-03-01T04:05:49;22.90;;;11.57;;
19727;SDS011;10015;52.530;13.390;2023-03-01T04:08:16;23.90;;;12.27;;
19727;SDS011;10015;52.530;13.390;2023-03-01T04:10:48;26.40;;;11.80;;
19727;SDS011;10015;52.530;13.390;2023-03-01T04:13:17;26.10;;;11.43;;
19727;SDS011;10015;52.530;13.390;2023-03-01T04:15:54;21.43;;;10.80;;
19727;SDS011;10015;52.530;13.390;2023-03-01T04:18:21;21.93;;;10.60;;
19727;SDS011;10015;52.530;13.390;2023-03-01T04:20:48;27.27;;;11.73;;
19727;SDS011;10015;52.530;13.390;2023-03-01T04:23:17;20.50;;;10.40;;
19727;SDS011;10015;52.530;13.390;2023-03-01T04:25:50;24.33;;;11.30;;
19727;SDS011;10015;52.530;13.390;2023-03-01T04:30:56;23.67;;;11.43;;
19727;SDS011;10015;52.530;13.390;2023-03-01T04:33:24;27.40;;;11.63;;
19727;SDS011;10015;52.530;13.390;2023-03-01T04:35:50;22.67;;;11.57;;
19727;SDS011;10015;52.530;13.390;2023-03-01T04:38:17;24.30;;;11.20;;
19727;SDS011;10015;52.530;13.390;2023-03-01T04:40:43;23.43;;;11.60;;
19727;SDS011;10015;52.530;13.390;2023-03-01T04:43:10;23.37;;;10.97;;
19727;SDS011;10015;52.530;13.390;2023-03-01T04:45:38;21.13;;;10.60;;
19727;SDS011;10015;52.530;13.390;2023-03-01T04:48:04;22.07;;;11.00;;
19727;SDS011;10015;52.530;13.390;2023-03-01T04:50:30;27.23;;;11.93;;
19727;SDS011;10015;52.530;13.390;2023-03-01T04:52:56;21.10;;;11.13;;
19727;SDS011;10015;52.530;13.390;2023-03-01T04:55:28;23.50;;;11.63;;
19727;SDS011;10015;52.530;13.390;2023-03-01T04:57:54;28.23;;;11.30;;
19727;SDS011;10015;52.530;13.390;2023-03-01T05:00:23;24.30;;;10.43;;
19727;SDS011;10015;52.530;13.390;2023-03-01T05:07:53;23.07;;;11.20;;
19727;SDS011;10015;52.530;13.390;2023-03-01T05:10:20;24.43;;;11.53;;
19727;SDS011;10015;52.530;13.390;2023-03-01T05:12:47;20.23;;;10.60;;
19727;SDS011;10015;52.530;13.390;2023-03-01T05:15:13;24.27;;;10.90;;
19727;SDS011;10015;52.530;13.390;2023-03-01T05:17:39;22.87;;;10.97;;
19727;SDS011;10015;52.530;13.390;2023-03-01T05:20:05;25.63;;;12.00;;
19727;SDS011;10015;52.530;13.390;2023-03-01T05:22:35;22.80;;;10.87;;
19727;SDS011;10015;52.530;13.390;2023-03-01T05:25:01;24.07;;;11.87;;
19727;SDS011;10015;52.530;13.390;2023-03-01T05:27:28;25.77;;;11.73;;
19727;SDS011;10015;52.530;13.390;2023-03-01T05:29:55;26.90;;;11.43;;
19727;SDS011;10015;52.530;13.390;2023-03-01T05:32:21;26.10;;;11.07;;
19727;SDS011;10015;52.530;13.390;2023-03-01T05:34:47;25.30;;;10.53;;
19727;SDS011;10015;52.530;13.390;2023-03-01T05:37:13;22.93;;;10.93;;
19727;SDS011;10015;52.530;13.390;2023-03-01T05:39:39;25.40;;;10.83;;
19727;SDS011;10015;52.530;13.390;2023-03-01T05:42:09;22.83;;;10.23;;
19727;SDS011;10015;52.530;13.390;2023-03-01T05:44:36;22.80;;;11.07;;
19727;SDS011;10015;52.530;13.390;2023-03-01T05:47:02;45.40;;;19.30;;
19727;SDS011;10015;52.530;13.390;2023-03-01T05:49:28;54.70;;;22.90;;
19727;SDS011;10015;52.530;13.390;2023-03-01T05:51:55;44.10;;;19.53;;
19727;SDS011;10015;52.530;13.390;2023-03-01T05:54:21;26.57;;;13.00;;
19727;SDS011;10015;52.530;13.390;2023-03-01T05:56:47;23.67;;;11.10;;
19727;SDS011;10015;52.530;13.390;2023-03-01T05:59:14;24.03;;;10.97;;
19727;SDS011;10015;52.530;13.390;2023-03-01T06:01:41;24.70;;;11.37;;
19727;SDS011;10015;52.530;13.390;2023-03-01T06:04:07;28.07;;;10.93;;
19727;SDS011;10015;52.530;13.390;2023-03-01T06:06:34;25.70;;;11.33;;
19727;SDS011;10015;52.530;13.390;2023-03-01T06:09:03;26.23;;;11.17;;
19727;SDS011;10015;52.530;13.390;2023-03-01T06:11:29;22.40;;;11.07;;
19727;SDS011;10015;52.530;13.390;2023-03-01T06:13:55;28.83;;;11.63;;
19727;SDS011;10015;52.530;13.390;2023-03-01T06:16:21;24.83;;;11.30;;
19727;SDS011;10015;52.530;13.390;2023-03-01T06:18:47;22.73;;;11.17;;
19727;SDS011;10015;52.530;13.390;2023-03-01T06:21:13;24.80;;;12.00;;
19727;SDS011;10015;52.530;13.390;2023-03-01T06:23:39;23.13;;;10.97;;
19727;SDS011;10015;52.530;13.390;2023-03-01T06:26:05;25.50;;;11.37;;
19727;SDS011;10015;52.530;13.390;2023-03-01T06:28:33;27.37;;;12.87;;
19727;SDS011;10015;52.530;13.390;2023-03-01T06:30:59;24.70;;;11.30;;
19727;SDS011;10015;52.530;13.390;2023-03-01T06:33:25;24.93;;;11.77;;
19727;SDS011;10015;52.530;13.390;2023-03-01T06:35:51;25.27;;;11.70;;
19727;SDS011;10015;52.530;13.390;2023-03-01T06:38:19;25.00;;;12.00;;
19727;SDS011;10015;52.530;13.390;2023-03-01T06:40:51;26.87;;;12.20;;
19727;SDS011;10015;52.530;13.390;2023-03-01T06:43:18;27.17;;;12.63;;
19727;SDS011;10015;52.530;13.390;2023-03-01T06:45:44;25.17;;;12.17;;
19727;SDS011;10015;52.530;13.390;2023-03-01T06:48:10;25.57;;;12.17;;
19727;SDS011;10015;52.530;13.390;2023-03-01T06:50:36;24.37;;;12.43;;
19727;SDS011;10015;52.530;13.390;2023-03-01T06:53:02;25.00;;;11.37;;
19727;SDS011;10015;52.530;13.390;2023-03-01T06:55:29;27.50;;;11.93;;
19727;SDS011;10015;52.530;13.390;2023-03-01T06:57:59;31.23;;;12.10;;
19727;SDS011;10015;52.530;13.390;2023-03-01T07:00:26;24.60;;;12.20;;
19727;SDS011;10015;52.530;13.390;2023-03-01T07:02:53;21.97;;;11.30;;
19727;SDS011;10015;52.530;13.390;2023-03-01T07:05:19;29.93;;;12.40;;
19727;SDS011;10015;52.530;13.390;2023-03-01T07:07:45;27.00;;;12.50;;
19727;SDS011;10015;52.530;13.390;2023-03-01T07:10:11;27.80;;;12.57;;
19727;SDS011;10015;52.530;13.390;2023-03-01T07:12:37;28.70;;;13.07;;
19727;SDS011;10015;52.530;13.390;2023-03-01T07:15:03;24.23;;;12.20;;
19727;SDS011;10015;52.530;13.390;2023-03-01T07:17:30;25.83;;;12.70;;
19727;SDS011;10015;52.530;13.390;2023-03-01T07:19:56;32.97;;;13.37;;
19727;SDS011;10015;52.530;13.390;2023-03-01T07:22:22;26.97;;;13.13;;
19727;SDS011;10015;52.530;13.390;2023-03-01T07:24:48;29.07;;;12.67;;
19727;SDS011;10015;52.530;13.390;2023-03-01T07:27:14;28.70;;;13.27;;
19727;SDS011;10015;52.530;13.390;2023-03-01T07:29:40;25.10;;;12.47;;
19727;SDS011;10015;52.530;13.390;2023-03-01T07:32:06;28.70;;;13.03;;
19727;SDS011;10015;52.530;13.390;2023-03-01T07:34:32;27.83;;;12.80;;
19727;SDS011;10015;52.530;13.390;2023-03-01T07:36:58;28.37;;;12.20;;
19727;SDS011;10015;52.530;13.390;2023-03-01T07:39:24;26.83;;;13.30;;
19727;SDS011;10015;52.530;13.390;2023-03-01T07:41:50;29.40;;;13.43;;
19727;SDS011;10015;52.530;13.390;2023-03-01T07:44:20;31.40;;;14.07;;
19727;SDS011;10015;52.530;13.390;2023-03-01T07:46:46;23.47;;;12.00;;
19727;SDS011;10015;52.530;13.390;2023-03-01T07:49:12;25.23;;;11.20;;
19727;SDS011;10015;52.530;13.390;2023-03-01T07:51:38;21.10;;;9.80;;
19727;SDS011;10015;52.530;13.390;2023-03-01T07:54:04;18.63;;;9.10;;
19727;SDS011;10015;52.530;13.390;2023-03-01T07:56:30;16.90;;;8.10;;
19727;SDS011;10015;52.530;13.390;2023-03-01T07:58:56;17.60;;;8.73;;
19727;SDS011;10015;52.530;13.390;2023-03-01T08:01:24;15.20;;;7.50;;
19727;SDS011;10015;52.530;13.390;2023-03-01T08:03:50;15.60;;;7.13;;
19727;SDS011;10015;52.530;13.390;2023-03-01T08:06:16;15.17;;;7.80;;
19727;SDS011;10015;52.530;13.390;2023-03-01T08:08:44;15.97;;;6.87;;
19727;SDS011;10015;52.530;13.390;2023-03-01T08:11:11;14.90;;;7.63;;
19727;SDS011;10015;52.530;13.390;2023-03-01T08:13:38;13.77;;;7.57;;
19727;SDS011;10015;52.530;13.390;2023-03-01T08:16:07;15.83;;;8.20;;
19727;SDS011;10015;52.530;13.390;2023-03-01T08:18:36;16.73;;;8.37;;
19727;SDS011;10015;52.530;13.390;2023-03-01T08:21:03;20.10;;;7.77;;
19727;SDS011;10015;52.530;13.390;2023-03-01T08:23:29;15.07;;;7.83;;
19727;SDS011;10015;52.530;13.390;2023-03-01T08:26:02;15.63;;;8.20;;
19727;SDS011;10015;52.530;13.390;2023-03-01T08:28:29;18.23;;;8.77;;
19727;SDS011;10015;52.530;13.390;2023-03-01T08:30:55;16.83;;;8.10;;
19727;SDS011;10015;52.530;13.390;2023-03-01T08:33:21;14.50;;;7.30;;
19727;SDS011;10015;52.530;13.390;2023-03-01T08:35:46;17.83;;;8.80;;
19727;SDS011;10015;52.530;13.390;2023-03-01T08:38:12;15.77;;;6.90;;
19727;SDS011;10015;52.530;13.390;2023-03-01T08:40:38;12.80;;;7.17;;
19727;SDS011;10015;52.530;13.390;2023-03-01T08:43:07;11.67;;;6.73;;
19727;SDS011;10015;52.530;13.390;2023-03-01T08:45:33;11.53;;;6.50;;
19727;SDS011;10015;52.530;13.390;2023-03-01T08:47:59;10.93;;;5.80;;
19727;SDS011;10015;52.530;13.390;2023-03-01T08:50:25;9.47;;;5.60;;
19727;SDS011;10015;52.530;13.390;2023-03-01T08:52:51;8.60;;;4.80;;
19727;SDS011;10015;52.530;13.390;2023-03-01T08:55:17;9.27;;;5.03;;
19727;SDS011;10015;52.530;13.390;2023-03-01T08:57:43;11.37;;;5.77;;
19727;SDS011;10015;52.530;13.390;2023-03-01T09:00:10;10.13;;;5.07;;
19727;SDS011;10015;52.530;13.390;2023-03-01T09:02:37;10.00;;;5.23;;
19727;SDS011;10015;52.530;13.390;2023-03-01T09:05:04;9.17;;;4.87;;
19727;SDS011;10015;52.530;13.390;2023-03-01T09:07:31;8.47;;;4.73;;
19727;SDS011;10015;52.530;13.390;2023-03-01T09:09:57;8.27;;;4.30;;
19727;SDS011;10015;52.530;13.390;2023-03-01T09:12:23;11.83;;;5.20;;
19727;SDS011;10015;52.530;13.390;2023-03-01T09:14:50;9.07;;;4.47;;
19727;SDS011;10015;52.530;13.390;2023-03-01T09:17:16;10.27;;;4.80;;
19727;SDS011;10015;52.530;13.390;2023-03-01T09:19:42;9.33;;;4.97;;
19727;SDS011;10015;52.530;13.390;2023-03-01T09:22:08;9.37;;;4.87;;
19727;SDS011;10015;52.530;13.390;2023-03-01T09:24:34;10.53;;;4.93;;
19727;SDS011;10015;52.530;13.390;2023-03-01T09:27:00;8.33;;;4.53;;
19727;SDS011;10015;52.530;13.390;2023-03-01T09:29:26;9.93;;;4.80;;
19727;SDS011;10015;52.530;13.390;2023-03-01T09:31:53;9.63;;;5.03;;
19727;SDS011;10015;52.530;13.390;2023-03-01T09:34:22;7.77;;;3.87;;
19727;SDS011;10015;52.530;13.390;2023-03-01T09:36:49;8.40;;;4.20;;
19727;SDS011;10015;52.530;13.390;2023-03-01T09:39:16;8.50;;;4.17;;
19727;SDS011;10015;52.530;13.390;2023-03-01T09:47:18;7.67;;;4.70;;
19727;SDS011;10015;52.530;13.390;2023-03-01T09:49:57;10.03;;;4.97;;
19727;SDS011;10015;52.530;13.390;2023-03-01T09:52:31;10.07;;;5.40;;
19727;SDS011;10015;52.530;13.390;2023-03-01T09:55:15;9.30;;;4.97;;
19727;SDS011;10015;52.530;13.390;2023-03-01T10:02:11;8.90;;;4.60;;
19727;SDS011;10015;52.530;13.390;2023-03-01T10:04:08;6.13;;;3.47;;
19727;SDS011;10015;52.530;13.390;2023-03-01T10:06:35;7.27;;;3.70;;
19727;SDS011;10015;52.530;13.390;2023-03-01T10:09:10;9.53;;;3.93;;
19727;SDS011;10015;52.530;13.390;2023-03-01T10:11:41;9.67;;;4.07;;
19727;SDS011;10015;52.530;13.390;2023-03-01T10:16:48;6.47;;;4.10;;
19727;SDS011;10015;52.530;13.390;2023-03-01T10:19:25;7.87;;;4.30;;
19727;SDS011;10015;52.530;13.390;2023-03-01T10:21:57;6.80;;;3.90;;
19727;SDS011;10015;52.530;13.390;2023-03-01T10:24:32;5.80;;;3.37;;
19727;SDS011;10015;52.530;13.390;2023-03-01T10:27:05;8.80;;;3.60;;
19727;SDS011;10015;52.530;13.390;2023-03-01T10:29:39;21.50;;;11.50;;
19727;SDS011;10015;52.530;13.390;2023-03-01T10:32:14;6.03;;;3.40;;
19727;SDS011;10015;52.530;13.390;2023-03-01T10:34:40;8.27;;;4.80;;
19727;SDS011;10015;52.530;13.390;2023-03-01T10:37:11;79.93;;;32.43;;
19727;SDS011;10015;52.530;13.390;2023-03-01T10:42:39;5.23;;;2.80;;
19727;SDS011;10015;52.530;13.390;2023-03-01T10:47:44;7.87;;;3.40;;
19727;SDS011;10015;52.530;13.390;2023-03-01T10:50:22;6.20;;;2.30;;
19727;SDS011;10015;52.530;13.390;2023-03-01T10:52:55;4.93;;;2.20;;
19727;SDS011;10015;52.530;13.390;2023-03-01T10:55:36;5.00;;;2.33;;
19727;SDS011;10015;52.530;13.390;2023-03-01T11:00:35;7.93;;;3.00;;
19727;SDS011;10015;52.530;13.390;2023-03-01T11:03:22;3.93;;;2.27;;
19727;SDS011;10015;52.530;13.390;2023-03-01T11:05:58;4.17;;;2.60;;
19727;SDS011;10015;52.530;13.390;2023-03-01T11:08:37;3.70;;;2.30;;
19727;SDS011;10015;52.530;13.390;2023-03-01T11:13:35;5.60;;;2.40;;
19727;SDS011;10015;52.530;13.390;2023-03-01T11:16:16;15.03;;;5.50;;
19727;SDS011;10015;52.530;13.390;2023-03-01T11:19:23;5.50;;;2.80;;
19727;SDS011;10015;52.530;13.390;2023-03-01T11:24:51;3.57;;;1.93;;
19727;SDS011;10015;52.530;13.390;2023-03-01T11:32:26;5.70;;;2.30;;
19727;SDS011;10015;52.530;13.390;2023-03-01T11:35:10;4.83;;;2.27;;
19727;SDS011;10015;52.530;13.390;2023-03-01T11:40:34;2.90;;;1.93;;
19727;SDS011;10015;52.530;13.390;2023-03-01T11:43:20;5.20;;;2.27;;
19727;SDS011;10015;52.530;13.390;2023-03-01T11:57:07;7.10;;;2.60;;
19727;SDS011;10015;52.530;13.390;2023-03-01T11:59:51;3.00;;;1.97;;
19727;SDS011;10015;52.530;13.390;2023-03-01T12:05:54;6.20;;;2.43;;
19727;SDS011;10015;52.530;13.390;2023-03-01T12:27:20;14.07;;;7.63;;
19727;SDS011;10015;52.530;13.390;2023-03-01T12:32:59;4.10;;;2.47;;
19727;SDS011;10015;52.530;13.390;2023-03-01T12:44:26;6.13;;;2.90;;
19727;SDS011;10015;52.530;13.390;2023-03-01T12:50:17;4.10;;;2.23;;
19727;SDS011;10015;52.530;13.390;2023-03-01T12:55:22;3.60;;;2.10;;
19727;SDS011;10015;52.530;13.390;2023-03-01T13:09:40;3.97;;;2.40;;
19727;SDS011;10015;52.530;13.390;2023-03-01T13:20:21;3.57;;;2.20;;
19727;SDS011;10015;52.530;13.390;2023-03-01T13:23:05;6.13;;;2.57;;
19727;SDS011;10015;52.530;13.390;2023-03-01T13:25:34;3.97;;;2.20;;
19727;SDS011;10015;52.530;13.390;2023-03-01T13:28:32;4.40;;;2.40;;
19727;SDS011;10015;52.530;13.390;2023-03-01T13:33:46;4.07;;;2.33;;
19727;SDS011;10015;52.530;13.390;2023-03-01T13:46:48;4.47;;;2.33;;
19727;SDS011;10015;52.530;13.390;2023-03-01T13:49:16;5.40;;;1.83;;
19727;SDS011;10015;52.530;13.390;2023-03-01T13:51:48;3.80;;;2.10;;
19727;SDS011;10015;52.530;13.390;2023-03-01T13:54:16;4.17;;;1.90;;
19727;SDS011;10015;52.530;13.390;2023-03-01T13:56:49;3.73;;;1.90;;
19727;SDS011;10015;52.530;13.390;2023-03-01T13:59:20;4.30;;;2.10;;
19727;SDS011;10015;52.530;13.390;2023-03-01T14:01:56;4.73;;;1.60;;
19727;SDS011;10015;52.530;13.390;2023-03-01T14:04:25;3.97;;;1.70;;
19727;SDS011;10015;52.530;13.390;2023-03-01T14:07:17;5.87;;;1.80;;
19727;SDS011;10015;52.530;13.390;2023-03-01T14:09:45;5.23;;;1.80;;
19727;SDS011;10015;52.530;13.390;2023-03-01T14:20:22;2.70;;;1.47;;
19727;SDS011;10015;52.530;13.390;2023-03-01T14:22:54;4.07;;;1.70;;
19727;SDS011;10015;52.530;13.390;2023-03-01T14:31:25;3.83;;;1.93;;
19727;SDS011;10015;52.530;13.390;2023-03-01T14:38:39;6.10;;;2.70;;
19727;SDS011;10015;52.530;13.390;2023-03-01T14:41:16;6.87;;;3.23;;
19727;SDS011;10015;52.530;13.390;2023-03-01T14:43:51;19.50;;;8.03;;
19727;SDS011;10015;52.530;13.390;2023-03-01T14:46:34;2.60;;;1.93;;
19727;SDS011;10015;52.530;13.390;2023-03-01T14:49:09;6.50;;;2.07;;
19727;SDS011;10015;52.530;13.390;2023-03-01T14:51:38;3.90;;;1.90;;
19727;SDS011;10015;52.530;13.390;2023-03-01T14:54:18;4.97;;;1.80;;
19727;SDS011;10015;52.530;13.390;2023-03-01T14:56:47;4.67;;;1.80;;
19727;SDS011;10015;52.530;13.390;2023-03-01T14:59:13;5.73;;;1.70;;
19727;SDS011;10015;52.530;13.390;2023-03-01T15:01:40;4.67;;;1.73;;
19727;SDS011;10015;52.530;13.390;2023-03-01T15:04:08;4.23;;;1.93;;
19727;SDS011;10015;52.530;13.390;2023-03-01T15:06:37;4.43;;;2.17;;
19727;SDS011;10015;52.530;13.390;2023-03-01T15:09:04;3.47;;;1.83;;
19727;SDS011;10015;52.530;13.390;2023-03-01T15:11:31;4.07;;;1.90;;
19727;SDS011;10015;52.530;13.390;2023-03-01T15:13:58;5.23;;;2.10;;
19727;SDS011;10015;52.530;13.390;2023-03-01T15:19:03;3.17;;;1.77;;
19727;SDS011;10015;52.530;13.390;2023-03-01T15:21:34;3.87;;;2.23;;
19727;SDS011;10015;52.530;13.390;2023-03-01T15:26:46;6.03;;;2.10;;
19727;SDS011;10015;52.530;13.390;2023-03-01T15:29:20;5.57;;;1.93;;
19727;SDS011;10015;52.530;13.390;2023-03-01T15:31:55;2.87;;;1.83;;
19727;SDS011;10015;52.530;13.390;2023-03-01T15:36:53;5.33;;;2.13;;
19727;SDS011;10015;52.530;13.390;2023-03-01T15:42:12;3.50;;;1.77;;
19727;SDS011;10015;52.530;13.390;2023-03-01T15:45:10;3.37;;;1.87;;
19727;SDS011;10015;52.530;13.390;2023-03-01T15:47:46;4.40;;;2.30;;
19727;SDS011;10015;52.530;13.390;2023-03-01T15:50:22;4.97;;;2.70;;
19727;SDS011;10015;52.530;13.390;2023-03-01T15:52:51;3.90;;;1.97;;
19727;SDS011;10015;52.530;13.390;2023-03-01T15:55:21;6.13;;;2.37;;
19727;SDS011;10015;52.530;13.390;2023-03-01T15:57:59;4.13;;;1.63;;
19727;SDS011;10015;52.530;13.390;2023-03-01T16:00:39;4.27;;;2.17;;
19727;SDS011;10015;52.530;13.390;2023-03-01T16:03:06;5.33;;;2.23;;
19727;SDS011;10015;52.530;13.390;2023-03-01T16:05:36;6.87;;;2.70;;
19727;SDS011;10015;52.530;13.390;2023-03-01T16:08:02;10.17;;;3.00;;
19727;SDS011;10015;52.530;13.390;2023-03-01T16:10:31;8.20;;;4.17;;
19727;SDS011;10015;52.530;13.390;2023-03-01T16:12:58;5.40;;;2.70;;
19727;SDS011;10015;52.530;13.390;2023-03-01T16:15:32;5.13;;;2.60;;
19727;SDS011;10015;52.530;13.390;2023-03-01T16:18:01;5.80;;;2.33;;
19727;SDS011;10015;52.530;13.390;2023-03-01T16:20:28;25.13;;;10.93;;
19727;SDS011;10015;52.530;13.390;2023-03-01T16:22:57;22.47;;;10.63;;
19727;SDS011;10015;52.530;13.390;2023-03-01T16:25:25;18.67;;;8.23;;
19727;SDS011;10015;52.530;13.390;2023-03-01T16:27:51;23.53;;;10.57;;
19727;SDS011;10015;52.530;13.390;2023-03-01T16:30:18;6.70;;;3.37;;
19727;SDS011;10015;52.530;13.390;2023-03-01T16:32:46;5.67;;;2.33;;
19727;SDS011;10015;52.530;13.390;2023-03-01T16:35:14;8.57;;;2.60;;
19727;SDS011;10015;52.530;13.390;2023-03-01T16:37:42;4.73;;;2.40;;
19727;SDS011;10015;52.530;13.390;2023-03-01T16:40:24;5.63;;;2.50;;
19727;SDS011;10015;52.530;13.390;2023-03-01T16:42:52;4.13;;;2.50;;
19727;SDS011;10015;52.530;13.390;2023-03-01T16:45:18;7.23;;;2.70;;
19727;SDS011;10015;52.530;13.390;2023-03-01T16:47:45;7.03;;;2.37;;
19727;SDS011;10015;52.530;13.390;2023-03-01T16:50:11;6.60;;;2.77;;
19727;SDS011;10015;52.530;13.390;2023-03-01T16:52:37;4.27;;;2.33;;
19727;SDS011;10015;52.530;13.390;2023-03-01T16:55:04;5.83;;;2.63;;
19727;SDS011;10015;52.530;13.390;2023-03-01T16:57:36;5.20;;;2.53;;
19727;SDS011;10015;52.530;13.390;2023-03-01T17:00:06;7.17;;;2.80;;
19727;SDS011;10015;52.530;13.390;2023-03-01T17:02:34;8.60;;;3.27;;
19727;SDS011;10015;52.530;13.390;2023-03-01T17:05:01;8.43;;;3.30;;
19727;SDS011;10015;52.530;13.390;2023-03-01T17:07:28;7.83;;;3.20;;
19727;SDS011;10015;52.530;13.390;2023-03-01T17:10:08;9.43;;;4.17;;